createdAt,value
2022-09-10T00:01:45.547Z,4.22
2022-09-10T00:04:15.373Z,4.25
2022-09-10T00:06:43.996Z,4.14
2022-09-10T00:09:18.779Z,4.14
2022-09-10T00:11:47.041Z,4.28
2022-09-10T00:14:21.888Z,4.26
2022-09-10T00:16:50.016Z,4.21
2022-09-10T00:19:21.904Z,4.03
2022-09-10T00:21:52.497Z,4.14
2022-09-10T00:24:22.580Z,4.18
2022-09-10T00:26:52.632Z,4.08
2022-09-10T00:29:22.204Z,3.96
2022-09-10T00:31:50.209Z,4.12
2022-09-10T00:34:20.196Z,4.01
2022-09-10T00:36:50.101Z,3.82
2022-09-10T00:39:20.297Z,3.93
2022-09-10T00:41:52.755Z,4.02
2022-09-10T00:44:58.531Z,4.06
2022-09-10T00:47:35.248Z,4.01
2022-09-10T00:50:08.862Z,3.91
2022-09-10T00:52:41.361Z,3.80
2022-09-10T00:55:10.662Z,3.58
2022-09-10T00:57:45.999Z,3.73
2022-09-10T01:00:15.304Z,3.89
2022-09-10T01:02:45.339Z,3.79
2022-09-10T01:05:16.344Z,3.69
2022-09-10T01:07:44.865Z,3.67
2022-09-10T01:10:20.532Z,3.66
2022-09-10T01:13:21.936Z,3.72
2022-09-10T01:15:59.676Z,3.64
2022-09-10T01:18:42.025Z,3.74
2022-09-10T01:21:21.867Z,3.63
2022-09-10T01:24:20.249Z,3.77
2022-09-10T01:27:10.178Z,3.56
2022-09-10T01:29:47.199Z,3.61
2022-09-10T01:32:22.474Z,3.59
2022-09-10T01:34:59.045Z,3.54
2022-09-10T01:37:30.729Z,3.61
2022-09-10T01:40:03.654Z,3.56
2022-09-10T01:42:33.590Z,3.54
2022-09-10T01:45:05.733Z,3.45
2022-09-10T01:47:53.430Z,3.57
2022-09-10T01:50:32.579Z,3.66
2022-09-10T01:53:17.979Z,3.53
2022-09-10T01:55:53.908Z,3.49
2022-09-10T01:58:29.979Z,3.51
2022-09-10T02:01:11.384Z,3.62
2022-09-10T02:03:41.015Z,3.42
2022-09-10T02:06:15.739Z,3.47
2022-09-10T02:08:49.068Z,3.31
2022-09-10T02:11:19.384Z,3.39
2022-09-10T02:13:47.203Z,3.44
2022-09-10T02:16:27.112Z,3.41
2022-09-10T02:18:55.648Z,3.25
2022-09-10T02:21:25.802Z,3.28
2022-09-10T02:24:00.727Z,3.29
2022-09-10T02:26:30.912Z,3.11
2022-09-10T02:28:58.984Z,3.24
2022-09-10T02:31:32.080Z,3.20
2022-09-10T02:34:00.222Z,3.23
2022-09-10T02:36:28.041Z,3.14
2022-09-10T02:38:58.786Z,3.19
2022-09-10T02:41:26.691Z,3.37
2022-09-10T02:43:54.685Z,3.31
2022-09-10T02:46:26.607Z,3.34
2022-09-10T02:48:56.021Z,3.38
2022-09-10T02:51:24.291Z,3.37
2022-09-10T02:53:56.075Z,3.26
2022-09-10T02:56:24.256Z,3.26
2022-09-10T02:58:52.610Z,3.36
2022-09-10T03:01:25.972Z,3.32
2022-09-10T03:03:56.981Z,3.21
2022-09-10T03:06:29.428Z,3.28
2022-09-10T03:08:57.633Z,3.22
2022-09-10T03:11:27.540Z,3.19
2022-09-10T03:13:59.676Z,3.17
2022-09-10T03:16:27.529Z,3.05
2022-09-10T03:18:56.720Z,3.29
2022-09-10T03:21:28.635Z,3.21
2022-09-10T03:23:57.211Z,3.20
2022-09-10T03:26:26.346Z,3.21
2022-09-10T03:28:58.221Z,3.32
2022-09-10T03:31:27.215Z,3.21
2022-09-10T03:34:01.676Z,3.30
2022-09-10T03:36:31.329Z,3.29
2022-09-10T03:39:01.409Z,3.35
2022-09-10T03:41:29.311Z,3.40
2022-09-10T03:43:57.462Z,3.33
2022-09-10T03:46:27.605Z,3.19
2022-09-10T03:49:01.536Z,3.31
2022-09-10T03:51:29.455Z,3.32
2022-09-10T03:53:57.540Z,3.47
2022-09-10T03:56:29.629Z,3.55
2022-09-10T03:58:57.444Z,3.55
2022-09-10T04:01:25.865Z,3.78
2022-09-10T04:04:01.821Z,3.87
2022-09-10T04:06:32.302Z,4.03
2022-09-10T04:09:01.328Z,4.20
2022-09-10T04:11:33.208Z,4.26
2022-09-10T04:14:01.566Z,4.49
2022-09-10T04:16:29.508Z,4.65
2022-09-10T04:19:04.588Z,4.70
2022-09-10T04:21:32.628Z,4.84
2022-09-10T04:24:00.807Z,4.89
2022-09-10T04:26:46.009Z,5.03
2022-09-10T04:29:14.508Z,5.09
2022-09-10T04:31:46.569Z,5.22
2022-09-10T04:34:18.259Z,5.34
2022-09-10T04:36:48.248Z,5.40
2022-09-10T04:39:16.326Z,5.46
2022-09-10T04:41:46.238Z,5.59
2022-09-10T04:44:20.120Z,5.64
2022-09-10T04:46:50.266Z,5.75
2022-09-10T04:49:19.549Z,5.76
2022-09-10T04:51:47.344Z,5.73
2022-09-10T04:54:17.391Z,5.82
2022-09-10T04:56:47.424Z,5.85
2022-09-10T04:59:15.196Z,5.88
2022-09-10T05:01:44.828Z,6.01
2022-09-10T05:04:14.854Z,6.09
2022-09-10T05:06:44.566Z,6.35
2022-09-10T05:09:14.606Z,6.45
2022-09-10T05:11:44.837Z,6.63
2022-09-10T05:14:12.634Z,6.67
2022-09-10T05:16:42.615Z,6.91
2022-09-10T05:19:17.801Z,6.92
2022-09-10T05:21:49.696Z,6.97
2022-09-10T05:24:19.577Z,7.13
2022-09-10T05:26:47.374Z,7.15
2022-09-10T05:29:16.995Z,7.39
2022-09-10T05:31:47.022Z,7.42
2022-09-10T05:34:14.848Z,7.58
2022-09-10T05:36:45.431Z,7.71
2022-09-10T05:39:15.728Z,7.85
2022-09-10T05:41:44.491Z,7.97
2022-09-10T05:44:14.149Z,8.09
2022-09-10T05:46:44.931Z,8.13
2022-09-10T05:49:13.127Z,8.29
2022-09-10T05:51:43.380Z,8.46
2022-09-10T05:54:14.668Z,8.66
2022-09-10T05:56:42.481Z,8.80
2022-09-10T05:59:12.711Z,8.89
2022-09-10T06:01:40.672Z,9.00
2022-09-10T06:04:08.429Z,9.25
2022-09-10T06:06:38.049Z,9.50
2022-09-10T06:09:07.986Z,9.63
2022-09-10T06:11:37.104Z,9.86
2022-09-10T06:14:06.728Z,10.08
2022-09-10T06:16:36.674Z,10.25
2022-09-10T06:19:04.533Z,10.49
2022-09-10T06:21:34.524Z,10.47
2022-09-10T06:24:02.666Z,10.72
2022-09-10T06:26:30.486Z,10.84
2022-09-10T06:29:03.467Z,10.97
2022-09-10T06:31:31.235Z,11.07
2022-09-10T06:33:59.057Z,11.25
2022-09-10T06:36:31.534Z,11.32
2022-09-10T06:38:59.996Z,11.47
2022-09-10T06:41:29.444Z,11.53
2022-09-10T06:44:02.745Z,11.55
2022-09-10T06:47:10.707Z,11.63
2022-09-10T06:49:23.656Z,11.85
2022-09-10T06:51:51.746Z,11.88
2022-09-10T06:54:20.118Z,11.95
2022-09-10T06:56:51.450Z,12.14
2022-09-10T06:59:20.893Z,12.26
2022-09-10T07:01:51.124Z,12.41
2022-09-10T07:04:21.148Z,12.55
2022-09-10T07:06:48.994Z,12.64
2022-09-10T07:09:17.128Z,12.63
2022-09-10T07:11:47.090Z,12.67
2022-09-10T07:14:18.195Z,12.84
2022-09-10T07:16:47.524Z,12.95
2022-09-10T07:19:17.807Z,12.97
2022-09-10T07:21:47.828Z,13.12
2022-09-10T07:24:15.655Z,13.16
2022-09-10T07:26:43.792Z,13.30
2022-09-10T07:29:13.672Z,13.43
2022-09-10T07:31:41.738Z,13.51
2022-09-10T07:34:13.522Z,13.76
2022-09-10T07:36:43.363Z,13.75
2022-09-10T07:39:11.923Z,13.89
2022-09-10T07:41:41.616Z,14.14
2022-09-10T07:44:09.463Z,14.32
2022-09-10T07:46:39.413Z,14.50
2022-09-10T07:49:09.356Z,14.60
2022-09-10T07:51:38.535Z,14.66
2022-09-10T07:54:08.662Z,14.83
2022-09-10T07:56:38.443Z,14.92
2022-09-10T07:59:06.268Z,14.83
2022-09-10T08:01:37.815Z,14.87
2022-09-10T08:04:06.472Z,14.91
2022-09-10T08:06:35.115Z,14.92
2022-09-10T08:09:09.302Z,14.86
2022-09-10T08:11:37.100Z,14.98
2022-09-10T08:14:04.860Z,14.90
2022-09-10T08:16:41.281Z,15.10
2022-09-10T08:19:13.889Z,15.00
2022-09-10T08:21:47.151Z,15.05
2022-09-10T08:24:16.250Z,14.99
2022-09-10T08:26:44.135Z,14.92
2022-09-10T08:29:14.353Z,14.93
2022-09-10T08:31:42.414Z,14.91
2022-09-10T08:34:13.752Z,14.93
2022-09-10T08:36:45.708Z,14.99
2022-09-10T08:39:13.752Z,15.11
2022-09-10T08:41:51.502Z,15.27
2022-09-10T08:44:31.263Z,15.26
2022-09-10T08:47:09.290Z,15.29
2022-09-10T08:49:41.860Z,15.17
2022-09-10T08:52:22.481Z,15.05
2022-09-10T08:55:00.633Z,15.07
2022-09-10T08:57:35.240Z,15.14
2022-09-10T09:00:03.906Z,15.16
2022-09-10T09:02:49.223Z,15.20
2022-09-10T09:05:40.821Z,15.11
2022-09-10T09:08:15.065Z,15.28
2022-09-10T09:10:48.054Z,15.36
2022-09-10T09:13:47.600Z,15.56
2022-09-10T09:16:37.488Z,15.83
2022-09-10T09:19:19.195Z,15.38
2022-09-10T09:21:53.390Z,15.47
2022-09-10T09:24:31.787Z,15.49
2022-09-10T09:27:09.888Z,15.32
2022-09-10T09:29:49.355Z,15.32
2022-09-10T09:32:20.051Z,15.31
2022-09-10T09:34:54.159Z,15.34
2022-09-10T09:37:26.864Z,15.28
2022-09-10T09:40:07.184Z,15.37
2022-09-10T09:42:45.347Z,15.45
2022-09-10T09:45:26.055Z,15.48
2022-09-10T09:47:55.919Z,15.38
2022-09-10T09:50:25.933Z,15.58
2022-09-10T09:52:58.327Z,15.58
2022-09-10T09:55:32.970Z,15.55
2022-09-10T09:58:35.646Z,15.77
2022-09-10T10:01:18.292Z,15.71
2022-09-10T10:03:59.155Z,15.72
2022-09-10T10:06:30.174Z,15.78
2022-09-10T10:09:01.464Z,15.92
2022-09-10T10:11:43.143Z,15.79
2022-09-10T10:14:40.084Z,15.71
2022-09-10T10:17:30.311Z,15.88
2022-09-10T10:20:02.655Z,15.71
2022-09-10T10:22:33.304Z,15.66
2022-09-10T10:25:02.380Z,15.47
2022-09-10T10:27:33.533Z,15.29
2022-09-10T10:30:04.594Z,15.42
2022-09-10T10:32:42.027Z,15.36
2022-09-10T10:35:32.050Z,15.26
2022-09-10T10:38:19.863Z,15.36
2022-09-10T10:40:57.170Z,15.35
2022-09-10T10:43:35.760Z,15.34
2022-09-10T10:46:11.207Z,15.24
2022-09-10T10:49:03.972Z,15.17
2022-09-10T10:51:40.489Z,15.28
2022-09-10T10:54:24.901Z,15.36
2022-09-10T10:57:04.935Z,15.41
2022-09-10T10:59:55.588Z,15.59
2022-09-10T11:02:36.504Z,15.59
2022-09-10T11:05:22.102Z,15.67
2022-09-10T11:07:52.799Z,15.64
2022-09-10T11:10:38.974Z,15.59
2022-09-10T11:13:14.207Z,15.71
2022-09-10T11:15:49.713Z,15.71
2022-09-10T11:18:23.153Z,15.43
2022-09-10T11:21:03.680Z,15.58
2022-09-10T11:23:37.710Z,15.60
2022-09-10T11:26:12.755Z,15.68
2022-09-10T11:28:47.409Z,15.52
2022-09-10T11:31:24.313Z,15.42
2022-09-10T11:34:02.024Z,15.49
2022-09-10T11:36:38.538Z,15.44
2022-09-10T11:39:17.623Z,15.44
2022-09-10T11:41:51.936Z,15.30
2022-09-10T11:44:41.956Z,15.50
2022-09-10T11:47:18.533Z,15.54
2022-09-10T11:49:54.421Z,15.53
2022-09-10T11:52:27.795Z,15.60
2022-09-10T11:54:59.169Z,15.74
2022-09-10T11:57:38.797Z,15.72
2022-09-10T12:00:15.799Z,15.97
2022-09-10T12:03:27.758Z,15.97
2022-09-10T12:06:07.586Z,15.95
2022-09-10T12:08:53.412Z,16.01
2022-09-10T12:11:32.019Z,15.95
2022-09-10T12:14:02.874Z,16.07
2022-09-10T12:16:37.505Z,16.08
2022-09-10T12:19:12.109Z,16.09
2022-09-10T12:21:49.298Z,16.19
2022-09-10T12:24:31.141Z,16.10
2022-09-10T12:27:02.249Z,16.13
2022-09-10T12:29:36.105Z,15.98
2022-09-10T12:32:33.092Z,15.95
2022-09-10T12:35:48.180Z,15.99
2022-09-10T12:38:55.607Z,16.03
2022-09-10T12:42:02.769Z,16.24
2022-09-10T12:44:47.917Z,16.09
2022-09-10T12:47:41.258Z,16.01
2022-09-10T12:50:34.116Z,16.00
2022-09-10T12:53:34.068Z,16.15
2022-09-10T12:56:15.820Z,15.90
2022-09-10T12:59:01.962Z,15.81
2022-09-10T13:01:44.051Z,15.60
2022-09-10T13:04:24.841Z,15.78
2022-09-10T13:06:59.712Z,15.85
2022-09-10T13:09:31.562Z,15.77
2022-09-10T13:12:06.927Z,15.74
2022-09-10T13:14:41.054Z,15.79
2022-09-10T13:17:39.922Z,15.70
2022-09-10T13:20:29.277Z,15.57
2022-09-10T13:23:05.779Z,15.64
2022-09-10T13:25:40.281Z,15.48
2022-09-10T13:28:48.250Z,15.44
2022-09-10T13:31:26.148Z,15.59
2022-09-10T13:34:36.380Z,15.44
2022-09-10T13:37:26.591Z,15.36
2022-09-10T13:40:28.665Z,15.33
2022-09-10T13:43:23.563Z,15.40
2022-09-10T13:45:57.079Z,15.27
2022-09-10T13:48:31.129Z,15.21
2022-09-10T13:51:20.248Z,15.29
2022-09-10T13:53:51.053Z,15.35
2022-09-10T13:56:25.804Z,15.27
2022-09-10T13:59:00.703Z,15.27
2022-09-10T14:01:51.735Z,15.19
2022-09-10T14:04:28.064Z,15.27
2022-09-10T14:07:02.510Z,15.22
2022-09-10T14:09:33.190Z,15.17
2022-09-10T14:12:05.778Z,15.34
2022-09-10T14:14:40.290Z,15.15
2022-09-10T14:17:14.923Z,15.26
2022-09-10T14:19:49.391Z,15.28
2022-09-10T14:22:22.380Z,15.31
2022-09-10T14:24:56.382Z,15.46
2022-09-10T14:27:28.394Z,15.34
2022-09-10T14:30:16.830Z,15.20
2022-09-10T14:32:48.410Z,15.18
2022-09-10T14:35:43.040Z,15.25
2022-09-10T14:38:26.406Z,15.30
2022-09-10T14:41:04.370Z,15.23
2022-09-10T14:43:39.950Z,15.28
2022-09-10T14:46:11.344Z,15.21
2022-09-10T14:48:43.329Z,15.16
2022-09-10T14:51:17.628Z,15.13
2022-09-10T14:53:48.982Z,15.04
2022-09-10T14:56:25.850Z,15.14
2022-09-10T14:59:01.166Z,15.12
2022-09-10T15:01:31.086Z,15.05
2022-09-10T15:03:59.862Z,14.99
2022-09-10T15:06:33.858Z,14.89
2022-09-10T15:09:01.696Z,15.01
2022-09-10T15:11:29.738Z,14.82
2022-09-10T15:14:02.968Z,14.78
2022-09-10T15:16:31.911Z,14.75
2022-09-10T15:19:02.444Z,14.81
2022-09-10T15:21:33.999Z,14.87
2022-09-10T15:24:01.826Z,14.92
2022-09-10T15:26:29.898Z,14.82
2022-09-10T15:29:02.262Z,14.89
2022-09-10T15:31:32.726Z,14.93
2022-09-10T15:34:04.972Z,14.93
2022-09-10T15:36:37.153Z,14.98
2022-09-10T15:39:05.767Z,14.92
2022-09-10T15:41:36.575Z,14.87
2022-09-10T15:44:06.713Z,14.80
2022-09-10T15:46:35.627Z,14.81
2022-09-10T15:49:06.408Z,14.69
2022-09-10T15:51:37.474Z,14.76
2022-09-10T15:54:06.214Z,14.80
2022-09-10T15:56:36.349Z,14.77
2022-09-10T15:59:08.604Z,14.69
2022-09-10T16:01:39.822Z,14.65
2022-09-10T16:04:09.763Z,14.72
2022-09-10T16:06:42.292Z,14.69
2022-09-10T16:09:13.592Z,14.82
2022-09-10T16:11:44.325Z,14.78
2022-09-10T16:14:20.535Z,14.83
2022-09-10T16:17:07.271Z,14.53
2022-09-10T16:19:41.264Z,14.53
2022-09-10T16:22:19.984Z,14.59
2022-09-10T16:24:50.661Z,14.61
2022-09-10T16:27:25.798Z,14.52
2022-09-10T16:30:30.294Z,14.54
2022-09-10T16:33:19.845Z,14.58
2022-09-10T16:35:56.322Z,14.44
2022-09-10T16:51:59.522Z,14.30
2022-09-10T16:59:23.906Z,14.18
2022-09-10T17:07:01.558Z,14.10
2022-09-10T17:13:48.666Z,13.92
2022-09-10T17:16:29.879Z,13.79
2022-09-10T17:19:13.201Z,13.73
2022-09-10T17:21:50.179Z,13.78
2022-09-10T17:24:27.850Z,13.69
2022-09-10T17:27:02.188Z,13.38
2022-09-10T17:29:41.120Z,13.47
2022-09-10T17:32:15.758Z,13.48
2022-09-10T17:34:50.395Z,13.50
2022-09-10T17:37:26.814Z,13.34
2022-09-10T17:39:59.879Z,13.28
2022-09-10T17:42:33.592Z,13.26
2022-09-10T17:45:11.746Z,13.09
2022-09-10T17:47:49.268Z,13.19
2022-09-10T17:50:23.679Z,13.16
2022-09-10T17:52:58.052Z,13.24
2022-09-10T17:55:35.024Z,13.25
2022-09-10T17:58:07.660Z,13.22
2022-09-10T18:00:46.673Z,12.90
2022-09-10T18:03:18.876Z,12.97
2022-09-10T18:05:50.988Z,12.99
2022-09-10T18:08:25.409Z,12.93
2022-09-10T18:11:09.345Z,12.94
2022-09-10T18:13:41.278Z,12.88
2022-09-10T18:16:23.008Z,12.96
2022-09-10T18:19:00.656Z,12.99
2022-09-10T18:21:35.338Z,12.81
2022-09-10T18:24:13.159Z,12.69
2022-09-10T18:26:50.002Z,12.85
2022-09-10T18:29:26.378Z,12.85
2022-09-10T18:32:02.013Z,12.89
2022-09-10T18:34:33.995Z,12.80
2022-09-10T18:37:10.446Z,12.67
2022-09-10T18:39:44.925Z,12.57
2022-09-10T18:42:17.849Z,12.58
2022-09-10T18:44:54.929Z,12.57
2022-09-10T18:47:44.609Z,12.55
2022-09-10T18:50:23.254Z,12.44
2022-09-10T18:52:57.739Z,12.59
2022-09-10T18:55:32.693Z,12.45
2022-09-10T18:58:04.797Z,12.65
2022-09-10T19:00:40.326Z,12.71
2022-09-10T19:03:13.981Z,12.65
2022-09-10T19:05:46.345Z,12.66
2022-09-10T19:08:19.883Z,12.59
2022-09-10T19:10:51.417Z,12.60
2022-09-10T19:13:21.645Z,12.76
2022-09-10T19:16:01.173Z,12.78
2022-09-10T19:18:38.190Z,12.62
2022-09-10T19:21:20.325Z,12.67
2022-09-10T19:24:02.754Z,12.69
2022-09-10T19:26:38.142Z,12.75
2022-09-10T19:29:12.976Z,12.75
2022-09-10T19:31:49.955Z,12.72
2022-09-10T19:34:29.050Z,12.81
2022-09-10T19:37:08.691Z,12.88
2022-09-10T19:39:41.109Z,12.66
2022-09-10T19:42:15.854Z,12.69
2022-09-10T19:44:51.088Z,12.78
2022-09-10T19:47:23.452Z,12.72
2022-09-10T19:50:03.697Z,12.59
2022-09-10T19:52:38.534Z,12.69
2022-09-10T19:55:16.484Z,12.61
2022-09-10T19:57:52.615Z,12.52
2022-09-10T20:00:45.835Z,12.66
2022-09-10T20:03:23.120Z,12.57
2022-09-10T20:05:59.735Z,12.48
2022-09-10T20:08:31.223Z,12.40
2022-09-10T20:11:03.427Z,12.43
2022-09-10T20:13:35.047Z,12.34
2022-09-10T20:16:11.285Z,12.34
2022-09-10T20:18:46.778Z,12.41
2022-09-10T20:21:21.739Z,12.47
2022-09-10T20:23:53.002Z,12.42
2022-09-10T20:26:29.376Z,12.44
2022-09-10T20:29:02.187Z,12.34
2022-09-10T20:31:41.384Z,12.52
2022-09-10T20:34:26.617Z,12.39
2022-09-10T20:37:03.591Z,12.42
2022-09-10T20:39:39.303Z,12.49
2022-09-10T20:42:12.379Z,12.39
2022-09-10T20:44:44.619Z,12.35
2022-09-10T20:47:16.430Z,12.54
2022-09-10T20:49:50.606Z,12.17
2022-09-10T20:52:26.578Z,12.19
2022-09-10T20:55:07.070Z,12.26
2022-09-10T20:57:37.469Z,12.39
2022-09-10T21:00:10.001Z,12.41
2022-09-10T21:02:41.676Z,12.36
2022-09-10T21:05:17.672Z,12.44
2022-09-10T21:07:55.040Z,12.28
2022-09-10T21:10:27.184Z,12.12
2022-09-10T21:12:58.837Z,12.06
2022-09-10T21:15:31.394Z,12.05
2022-09-10T21:18:02.415Z,12.16
2022-09-10T21:20:34.822Z,12.16
2022-09-10T21:23:09.803Z,12.22
2022-09-10T21:25:40.667Z,12.01
2022-09-10T21:28:11.443Z,12.07
2022-09-10T21:30:41.643Z,11.97
2022-09-10T21:33:13.800Z,12.16
2022-09-10T21:35:50.146Z,12.10
2022-09-10T21:38:26.354Z,12.16
2022-09-10T21:41:00.287Z,12.20
2022-09-10T21:43:32.411Z,12.32
2022-09-10T21:46:04.887Z,12.33
2022-09-10T21:48:37.855Z,12.35
2022-09-10T21:51:11.156Z,12.30
2022-09-10T21:53:46.783Z,12.27
2022-09-10T21:56:20.170Z,12.35
2022-09-10T21:58:51.648Z,12.23
2022-09-10T22:01:27.195Z,11.83
2022-09-10T22:04:00.837Z,11.90
2022-09-10T22:06:33.433Z,12.05
2022-09-10T22:09:05.446Z,12.02
2022-09-10T22:11:36.908Z,12.06
2022-09-10T22:14:09.358Z,12.12
2022-09-10T22:16:40.415Z,11.97
2022-09-10T22:19:12.554Z,12.03
2022-09-10T22:21:43.156Z,12.09
2022-09-10T22:24:17.239Z,12.09
2022-09-10T22:26:48.305Z,11.95
2022-09-10T22:29:21.122Z,12.13
2022-09-10T22:31:51.945Z,12.11
2022-09-10T22:34:23.952Z,12.17
2022-09-10T22:36:55.351Z,12.25
2022-09-10T22:39:29.002Z,12.11
2022-09-10T22:42:00.465Z,12.16
2022-09-10T22:44:31.702Z,12.18
2022-09-10T22:47:04.681Z,12.14
2022-09-10T22:49:36.861Z,12.00
2022-09-10T22:52:08.683Z,11.78
2022-09-10T22:54:40.958Z,11.78
2022-09-10T22:57:13.667Z,11.81
2022-09-10T22:59:44.057Z,11.61
2022-09-10T23:02:14.876Z,11.90
2022-09-10T23:04:43.518Z,11.96
2022-09-10T23:07:13.735Z,11.99
2022-09-10T23:09:45.102Z,12.00
2022-09-10T23:12:13.158Z,11.91
2022-09-10T23:14:43.137Z,11.98
2022-09-10T23:17:18.434Z,11.64
2022-09-10T23:19:49.936Z,11.94
2022-09-10T23:22:20.956Z,12.08
2022-09-10T23:24:53.717Z,12.05
2022-09-10T23:27:24.950Z,12.06
2022-09-10T23:29:53.410Z,12.04
2022-09-10T23:32:26.199Z,12.06
2022-09-10T23:34:54.920Z,12.14
2022-09-10T23:37:31.822Z,12.18
2022-09-10T23:40:03.008Z,12.17
2022-09-10T23:42:38.106Z,12.14
2022-09-10T23:45:10.240Z,12.02
2022-09-10T23:47:41.513Z,12.05
2022-09-10T23:50:10.715Z,11.86
2022-09-10T23:52:41.373Z,11.82
2022-09-10T23:55:16.768Z,11.94
2022-09-10T23:57:51.534Z,12.03
